ENT4RQ EPBY-LGSK
Flight info
| Callsign | ENT4RQ |
|---|---|
| Flight time | N/A |
| Altitude | 39000 |
| Route | INTUN DCT PENEX N133 LENOV DCT ORA DCT OSTOV N127 NIKTI DCT PELAS DCT SIGFO |
| Aircraft | B738/M-SDE2E3FGHIRWXY/LB1 |
Departure
| Time | 2026-05-06 12:37 |
|---|---|
| Airport | Ignacy Jan Paderewski Bydgoszcz Airport (EPBY) |
Arrival
| Time | N/A |
|---|---|
| Airport | Skiathos Island National Airport (LGSK) |
| Time | Latitude | Longitude | Altitude | Speed | Heading |
|---|---|---|---|---|---|
| 2026-05-06 12:26 | 53.09459 | 17.99696 | 223 ft | 0 kts | 172° |
| 2026-05-06 12:29 | 53.09470 | 17.99693 | 223 ft | 3 kts | 172° |
| 2026-05-06 12:29 | 53.09491 | 17.99689 | 226 ft | 3 kts | 172° |
| 2026-05-06 12:30 | 53.09511 | 17.99684 | 225 ft | 3 kts | 172° |
| 2026-05-06 12:30 | 53.09531 | 17.99679 | 224 ft | 3 kts | 168° |
| 2026-05-06 12:30 | 53.09550 | 17.99671 | 226 ft | 3 kts | 159° |
| 2026-05-06 12:30 | 53.09567 | 17.99657 | 226 ft | 3 kts | 131° |
| 2026-05-06 12:31 | 53.09574 | 17.99639 | 224 ft | 1 kts | 83° |
| 2026-05-06 12:31 | 53.09573 | 17.99628 | 223 ft | 2 kts | 82° |
| 2026-05-06 12:31 | 53.09570 | 17.99597 | 223 ft | 0 kts | 82° |
| 2026-05-06 12:31 | 53.09570 | 17.99596 | 223 ft | 0 kts | 82° |
| 2026-05-06 12:34 | 53.09579 | 17.99632 | 223 ft | 8 kts | 52° |
| 2026-05-06 12:35 | 53.09650 | 17.99653 | 223 ft | 13 kts | 352° |
| 2026-05-06 12:35 | 53.09743 | 17.99632 | 223 ft | 13 kts | 352° |
| 2026-05-06 12:35 | 53.09818 | 17.99566 | 226 ft | 13 kts | 309° |
| 2026-05-06 12:35 | 53.09826 | 17.99503 | 225 ft | 0 kts | 260° |
| 2026-05-06 12:36 | 53.09826 | 17.99499 | 225 ft | 3 kts | 260° |
| 2026-05-06 12:37 | 53.09805 | 17.99265 | 223 ft | 54 kts | 263° |
| 2026-05-06 12:37 | 53.09721 | 17.98237 | 223 ft | 123 kts | 262° |
| 2026-05-06 12:37 | 53.09575 | 17.96565 | 455 ft | 158 kts | 261° |
| 2026-05-06 12:37 | 53.09430 | 17.94732 | 1246 ft | 166 kts | 261° |
| 2026-05-06 12:38 | 53.09271 | 17.92872 | 2311 ft | 161 kts | 258° |
| 2026-05-06 12:38 | 53.09106 | 17.91055 | 3296 ft | 159 kts | 257° |
| 2026-05-06 12:38 | 53.08948 | 17.89151 | 4018 ft | 177 kts | 257° |
| 2026-05-06 12:38 | 53.08666 | 17.86999 | 4312 ft | 203 kts | 240° |
| 2026-05-06 12:39 | 53.07743 | 17.85201 | 4926 ft | 210 kts | 217° |
| 2026-05-06 12:39 | 53.06392 | 17.84134 | 5587 ft | 224 kts | 194° |
| 2026-05-06 12:39 | 53.04812 | 17.84060 | 6013 ft | 233 kts | 179° |
| 2026-05-06 12:39 | 53.03208 | 17.84633 | 6745 ft | 243 kts | 160° |
| 2026-05-06 12:40 | 53.01855 | 17.86414 | 7620 ft | 258 kts | 134° |
| 2026-05-06 12:40 | 53.01059 | 17.89233 | 8128 ft | 290 kts | 103° |
| 2026-05-06 12:40 | 53.01128 | 17.92698 | 8788 ft | 307 kts | 86° |
| 2026-05-06 12:40 | 53.01448 | 17.96248 | 9641 ft | 313 kts | 85° |
| 2026-05-06 12:41 | 53.01801 | 17.99863 | 10286 ft | 326 kts | 84° |
| 2026-05-06 12:41 | 53.02168 | 18.03738 | 10470 ft | 352 kts | 84° |
| 2026-05-06 12:41 | 53.02545 | 18.07896 | 10719 ft | 374 kts | 84° |
| 2026-05-06 12:41 | 53.02926 | 18.12227 | 11375 ft | 382 kts | 84° |
| 2026-05-06 12:42 | 53.03306 | 18.16634 | 12145 ft | 387 kts | 84° |
| 2026-05-06 12:42 | 53.03677 | 18.21020 | 12898 ft | 391 kts | 84° |
| 2026-05-06 12:42 | 53.04054 | 18.25526 | 13626 ft | 396 kts | 84° |
| 2026-05-06 12:42 | 53.04433 | 18.30082 | 14285 ft | 400 kts | 84° |
| 2026-05-06 12:43 | 53.05187 | 18.34565 | 14927 ft | 409 kts | 65° |
| 2026-05-06 12:43 | 53.06563 | 18.38724 | 15616 ft | 413 kts | 61° |
| 2026-05-06 12:43 | 53.07997 | 18.42905 | 16234 ft | 418 kts | 62° |
| 2026-05-06 12:43 | 53.09427 | 18.47149 | 16854 ft | 423 kts | 62° |
| 2026-05-06 12:44 | 53.10851 | 18.51470 | 17518 ft | 428 kts | 63° |
| 2026-05-06 12:44 | 53.12276 | 18.55854 | 18114 ft | 432 kts | 64° |
| 2026-05-06 12:44 | 53.13307 | 18.60536 | 18610 ft | 432 kts | 83° |
| 2026-05-06 12:44 | 53.13380 | 18.65490 | 19207 ft | 424 kts | 103° |
| 2026-05-06 12:45 | 53.12592 | 18.70066 | 19784 ft | 415 kts | 121° |
| 2026-05-06 12:45 | 53.11053 | 18.74146 | 20354 ft | 406 kts | 136° |
| 2026-05-06 12:45 | 53.06661 | 18.79709 | 21432 ft | 397 kts | 156° |
| 2026-05-06 12:46 | 53.04288 | 18.81969 | 21938 ft | 400 kts | 156° |
| 2026-05-06 12:46 | 53.01854 | 18.84251 | 22451 ft | 403 kts | 156° |
| 2026-05-06 12:46 | 52.99404 | 18.86556 | 22966 ft | 406 kts | 156° |
| 2026-05-06 12:46 | 52.96938 | 18.88895 | 23437 ft | 409 kts | 156° |
| 2026-05-06 12:47 | 52.94463 | 18.91260 | 23894 ft | 411 kts | 156° |
| 2026-05-06 12:47 | 52.91983 | 18.93642 | 24351 ft | 413 kts | 156° |
| 2026-05-06 12:47 | 52.89495 | 18.96036 | 24800 ft | 415 kts | 156° |
| 2026-05-06 12:47 | 52.86996 | 18.98442 | 25227 ft | 416 kts | 156° |
| 2026-05-06 12:48 | 52.84483 | 19.00858 | 25636 ft | 419 kts | 156° |
| 2026-05-06 12:48 | 52.81960 | 19.03279 | 26045 ft | 420 kts | 156° |
| 2026-05-06 12:48 | 52.79422 | 19.05713 | 26458 ft | 422 kts | 156° |
| 2026-05-06 12:48 | 52.76875 | 19.08151 | 26853 ft | 424 kts | 156° |
| 2026-05-06 12:49 | 52.74316 | 19.10597 | 27233 ft | 426 kts | 156° |
| 2026-05-06 12:49 | 52.71743 | 19.13052 | 27601 ft | 428 kts | 156° |
| 2026-05-06 12:49 | 52.69156 | 19.15518 | 27961 ft | 430 kts | 156° |
| 2026-05-06 12:49 | 52.66563 | 19.17987 | 28312 ft | 432 kts | 156° |
| 2026-05-06 12:50 | 52.63978 | 19.20446 | 28653 ft | 434 kts | 156° |
| 2026-05-06 12:50 | 52.61357 | 19.22935 | 28982 ft | 436 kts | 156° |
| 2026-05-06 12:50 | 52.58725 | 19.25429 | 29304 ft | 438 kts | 156° |
| 2026-05-06 12:50 | 52.56040 | 19.27771 | 29604 ft | 435 kts | 162° |
| 2026-05-06 12:51 | 52.53219 | 19.29438 | 29956 ft | 428 kts | 169° |
| 2026-05-06 12:51 | 52.50368 | 19.30831 | 30361 ft | 426 kts | 169° |
| 2026-05-06 12:51 | 52.47520 | 19.32215 | 30650 ft | 427 kts | 169° |
| 2026-05-06 12:51 | 52.44670 | 19.33611 | 30906 ft | 429 kts | 169° |
| 2026-05-06 12:52 | 52.41804 | 19.35028 | 31228 ft | 429 kts | 169° |
| 2026-05-06 12:52 | 52.38950 | 19.36450 | 31586 ft | 428 kts | 169° |
| 2026-05-06 12:52 | 52.36099 | 19.37877 | 31907 ft | 429 kts | 169° |
| 2026-05-06 12:52 | 52.33244 | 19.39306 | 32198 ft | 429 kts | 169° |
| 2026-05-06 12:53 | 52.30428 | 19.40714 | 32502 ft | 429 kts | 169° |
| 2026-05-06 12:53 | 52.27572 | 19.42141 | 32825 ft | 429 kts | 169° |
| 2026-05-06 12:53 | 52.24682 | 19.43583 | 33149 ft | 429 kts | 169° |
| 2026-05-06 12:53 | 52.21865 | 19.44985 | 33435 ft | 429 kts | 169° |
| 2026-05-06 12:54 | 52.19013 | 19.46403 | 33726 ft | 429 kts | 169° |
| 2026-05-06 12:54 | 52.16151 | 19.47825 | 33986 ft | 429 kts | 169° |
| 2026-05-06 12:54 | 52.13295 | 19.49241 | 34181 ft | 430 kts | 169° |
| 2026-05-06 12:54 | 52.10428 | 19.50659 | 34392 ft | 431 kts | 169° |
| 2026-05-06 12:55 | 52.07556 | 19.52079 | 34622 ft | 431 kts | 169° |
| 2026-05-06 12:55 | 52.04682 | 19.53497 | 34838 ft | 432 kts | 169° |
| 2026-05-06 12:55 | 52.01806 | 19.54915 | 35048 ft | 432 kts | 169° |
| 2026-05-06 12:55 | 51.98929 | 19.56332 | 35250 ft | 433 kts | 169° |
| 2026-05-06 12:56 | 51.96040 | 19.57754 | 35468 ft | 433 kts | 168° |
| 2026-05-06 12:56 | 51.93151 | 19.59174 | 35693 ft | 434 kts | 168° |
| 2026-05-06 12:56 | 51.90261 | 19.60591 | 35876 ft | 434 kts | 168° |
| 2026-05-06 12:56 | 51.87362 | 19.62011 | 36088 ft | 435 kts | 168° |
| 2026-05-06 12:57 | 51.84499 | 19.63412 | 36291 ft | 435 kts | 168° |
| 2026-05-06 12:57 | 51.81600 | 19.64828 | 36486 ft | 436 kts | 168° |
| 2026-05-06 12:57 | 51.78699 | 19.66263 | 36681 ft | 437 kts | 167° |
| 2026-05-06 12:57 | 51.75799 | 19.67796 | 36862 ft | 438 kts | 166° |
| 2026-05-06 12:58 | 51.72905 | 19.69355 | 37063 ft | 438 kts | 166° |
| 2026-05-06 12:58 | 51.70014 | 19.70902 | 37250 ft | 438 kts | 166° |
| 2026-05-06 12:58 | 51.67113 | 19.72437 | 37431 ft | 439 kts | 167° |
| 2026-05-06 12:58 | 51.64211 | 19.73961 | 37623 ft | 439 kts | 167° |
| 2026-05-06 12:59 | 51.61304 | 19.75482 | 37792 ft | 439 kts | 167° |
| 2026-05-06 12:59 | 51.58395 | 19.77005 | 37961 ft | 440 kts | 167° |
| 2026-05-06 12:59 | 51.55485 | 19.78528 | 38129 ft | 440 kts | 167° |
| 2026-05-06 12:59 | 51.52571 | 19.80051 | 38332 ft | 440 kts | 167° |
| 2026-05-06 13:00 | 51.49661 | 19.81576 | 38498 ft | 440 kts | 167° |
| 2026-05-06 13:00 | 51.46740 | 19.83109 | 38608 ft | 441 kts | 166° |
| 2026-05-06 13:00 | 51.43823 | 19.84638 | 38713 ft | 441 kts | 166° |
| 2026-05-06 13:01 | 51.37988 | 19.87674 | 38772 ft | 441 kts | 167° |
| 2026-05-06 13:01 | 51.32176 | 19.90689 | 38779 ft | 442 kts | 167° |
| 2026-05-06 13:02 | 51.26317 | 19.93730 | 38784 ft | 443 kts | 167° |
| 2026-05-06 13:02 | 51.20448 | 19.96764 | 38784 ft | 443 kts | 167° |
| 2026-05-06 13:03 | 51.14575 | 19.99782 | 38783 ft | 444 kts | 167° |
| 2026-05-06 13:03 | 51.08700 | 20.02794 | 38786 ft | 444 kts | 167° |
| 2026-05-06 13:04 | 51.02853 | 20.05783 | 38790 ft | 443 kts | 167° |
| 2026-05-06 13:04 | 50.96987 | 20.08776 | 38786 ft | 443 kts | 167° |
| 2026-05-06 13:05 | 50.91119 | 20.11762 | 38792 ft | 442 kts | 167° |
| 2026-05-06 13:05 | 50.85263 | 20.14734 | 38796 ft | 442 kts | 167° |
| 2026-05-06 13:06 | 50.79403 | 20.17703 | 38799 ft | 442 kts | 167° |